createdAt,value
2019-06-07T00:00:43.411Z,18.80
2019-06-07T00:03:24.884Z,18.80
2019-06-07T00:05:46.253Z,18.80
2019-06-07T00:08:26.965Z,18.80
2019-06-07T00:10:49.485Z,18.80
2019-06-07T00:13:20.432Z,18.80
2019-06-07T00:15:51.582Z,18.80
2019-06-07T00:18:25.815Z,18.80
2019-06-07T00:20:54.909Z,18.90
2019-06-07T00:23:25.570Z,18.80
2019-06-07T00:25:56.235Z,18.90
2019-06-07T00:28:27.198Z,18.90
2019-06-07T00:30:58.121Z,18.90
2019-06-07T00:33:29.245Z,18.90
2019-06-07T00:35:59.806Z,18.80
2019-06-07T00:38:30.445Z,18.90
2019-06-07T00:41:02.542Z,18.90
2019-06-07T00:43:33.306Z,18.90
2019-06-07T00:46:03.843Z,18.90
2019-06-07T00:48:34.601Z,18.90
2019-06-07T00:51:05.255Z,18.90
2019-06-07T00:53:35.845Z,19.00
2019-06-07T00:56:06.358Z,18.90
2019-06-07T00:58:37.350Z,18.90
2019-06-07T01:01:07.876Z,19.00
2019-06-07T01:03:38.698Z,18.90
2019-06-07T01:06:09.390Z,19.00
2019-06-07T01:08:40.276Z,19.00
2019-06-07T01:11:11.430Z,19.00
2019-06-07T01:13:42.463Z,19.00
2019-06-07T01:16:13.788Z,19.00
2019-06-07T01:18:46.879Z,18.90
2019-06-07T01:21:21.709Z,18.90
2019-06-07T01:24:12.142Z,18.90
2019-06-07T01:26:24.150Z,18.90
2019-06-07T01:28:53.955Z,19.00
2019-06-07T01:31:27.816Z,19.00
2019-06-07T01:33:57.072Z,19.00
2019-06-07T01:36:29.534Z,18.90
2019-06-07T01:39:00.560Z,18.90
2019-06-07T01:41:33.041Z,18.90
2019-06-07T01:44:03.749Z,18.90
2019-06-07T01:46:34.414Z,18.90
2019-06-07T01:49:05.047Z,18.90
2019-06-07T01:51:35.757Z,18.90
2019-06-07T01:54:54.347Z,18.90
2019-06-07T01:56:39.645Z,18.90
2019-06-07T01:59:10.127Z,18.90
2019-06-07T02:01:41.367Z,18.90
2019-06-07T02:04:11.844Z,18.90
2019-06-07T02:06:42.385Z,18.80
2019-06-07T02:09:14.491Z,18.90
2019-06-07T02:11:45.297Z,18.80
2019-06-07T02:14:15.888Z,18.80
2019-06-07T02:16:46.476Z,18.80
2019-06-07T02:19:17.021Z,18.80
2019-06-07T02:21:47.724Z,18.80
2019-06-07T02:24:18.322Z,18.80
2019-06-07T02:26:48.750Z,18.80
2019-06-07T02:29:20.265Z,18.80
2019-06-07T02:31:51.027Z,18.80
2019-06-07T02:34:21.729Z,18.80
2019-06-07T02:36:54.159Z,18.70
2019-06-07T02:39:27.696Z,18.70
2019-06-07T02:41:57.020Z,18.70
2019-06-07T02:44:30.601Z,18.70
2019-06-07T02:46:59.887Z,18.70
2019-06-07T02:49:36.273Z,18.70
2019-06-07T02:52:02.989Z,18.60
2019-06-07T02:54:36.956Z,18.50
2019-06-07T02:57:06.285Z,18.60
2019-06-07T03:00:04.289Z,18.60
2019-06-07T03:02:09.200Z,18.50
2019-06-07T03:04:44.755Z,18.50
2019-06-07T03:07:15.101Z,18.50
2019-06-07T03:09:46.989Z,18.50
2019-06-07T03:12:20.346Z,18.50
2019-06-07T03:14:53.148Z,18.50
2019-06-07T03:17:49.767Z,18.50
2019-06-07T03:20:21.287Z,18.50
2019-06-07T03:22:52.515Z,18.40
2019-06-07T03:25:22.958Z,18.40
2019-06-07T03:27:53.833Z,18.40
2019-06-07T03:30:39.088Z,18.40
2019-06-07T03:32:56.567Z,18.40
2019-06-07T03:35:29.800Z,18.30
2019-06-07T03:37:59.646Z,18.30
2019-06-07T03:40:31.673Z,18.40
2019-06-07T03:43:02.314Z,18.40
2019-06-07T03:45:35.155Z,18.40
2019-06-07T03:48:05.428Z,18.40
2019-06-07T03:50:39.596Z,18.50
2019-06-07T03:53:08.542Z,18.40
2019-06-07T03:55:41.257Z,18.30
2019-06-07T04:00:44.337Z,18.40
2019-06-07T04:03:33.075Z,18.40
2019-06-07T04:05:48.239Z,18.40
2019-06-07T04:08:19.312Z,18.50
2019-06-07T04:10:59.613Z,18.50
2019-06-07T04:13:23.084Z,18.50
2019-06-07T04:15:53.731Z,18.60
2019-06-07T04:18:25.659Z,18.60
2019-06-07T04:20:56.308Z,18.70
2019-06-07T04:23:30.048Z,18.70
2019-06-07T04:25:59.395Z,18.70
2019-06-07T04:29:24.878Z,18.60
2019-06-07T04:31:02.849Z,18.60
2019-06-07T04:33:37.068Z,18.60
2019-06-07T04:36:05.698Z,18.60
2019-06-07T04:38:39.890Z,18.60
2019-06-07T04:41:09.384Z,18.60
2019-06-07T04:43:42.841Z,18.70
2019-06-07T04:46:15.661Z,18.70
2019-06-07T04:48:48.265Z,18.70
2019-06-07T04:51:19.918Z,18.80
2019-06-07T04:53:50.598Z,18.80
2019-06-07T04:56:21.344Z,18.90
2019-06-07T04:58:51.839Z,18.90
2019-06-07T05:01:27.633Z,19.00
2019-06-07T05:03:54.627Z,19.10
2019-06-07T05:06:25.392Z,19.30
2019-06-07T05:08:56.523Z,19.60
2019-06-07T05:11:27.387Z,20.10
2019-06-07T05:13:58.201Z,20.90
2019-06-07T05:16:30.610Z,22.00
2019-06-07T05:19:01.312Z,23.10
2019-06-07T05:21:53.658Z,24.20
2019-06-07T05:24:09.503Z,25.20
2019-06-07T05:26:39.212Z,26.10
2019-06-07T05:29:10.044Z,27.00
2019-06-07T05:31:44.923Z,27.80
2019-06-07T05:34:13.396Z,28.70
2019-06-07T05:36:45.256Z,29.00
2019-06-07T05:39:16.262Z,29.60
2019-06-07T05:41:46.855Z,30.00
2019-06-07T05:44:17.453Z,30.20
2019-06-07T05:46:48.333Z,30.20
2019-06-07T05:49:18.818Z,30.20
2019-06-07T05:51:49.246Z,30.40
2019-06-07T05:54:19.752Z,30.20
2019-06-07T05:56:50.318Z,30.20
2019-06-07T05:59:21.195Z,30.40
2019-06-07T06:02:01.929Z,30.00
2019-06-07T06:04:24.450Z,29.30
2019-06-07T06:06:55.237Z,28.80
2019-06-07T06:09:25.885Z,28.30
2019-06-07T06:12:02.233Z,28.20
2019-06-07T06:14:29.392Z,28.00
2019-06-07T06:17:00.073Z,27.70
2019-06-07T06:19:30.781Z,27.40
2019-06-07T06:22:01.604Z,27.20
2019-06-07T06:24:32.690Z,27.10
2019-06-07T06:27:28.152Z,27.20
2019-06-07T06:29:39.923Z,27.60
2019-06-07T06:32:40.976Z,27.60
2019-06-07T06:34:44.264Z,28.30
2019-06-07T06:37:13.240Z,29.10
2019-06-07T06:39:46.615Z,30.00
2019-06-07T06:42:17.348Z,30.80
2019-06-07T06:44:53.600Z,31.10
2019-06-07T06:47:20.525Z,31.30
2019-06-07T06:49:54.337Z,31.70
2019-06-07T06:52:23.996Z,32.00
2019-06-07T06:55:00.487Z,32.00
2019-06-07T06:57:27.849Z,32.30
2019-06-07T06:59:58.805Z,32.80
2019-06-07T07:02:30.144Z,33.40
2019-06-07T07:05:01.039Z,33.90
2019-06-07T07:07:32.229Z,34.00
2019-06-07T07:10:04.535Z,34.00
2019-06-07T07:12:36.120Z,34.10
2019-06-07T07:15:07.476Z,34.40
2019-06-07T07:17:50.489Z,34.40
2019-06-07T07:20:11.175Z,34.50
2019-06-07T07:22:42.804Z,34.40
2019-06-07T07:25:14.891Z,34.40
2019-06-07T07:27:47.278Z,34.70
2019-06-07T07:30:37.571Z,34.70
2019-06-07T07:32:59.033Z,34.40
2019-06-07T07:35:26.597Z,34.30
2019-06-07T07:37:59.773Z,33.90
2019-06-07T07:40:56.917Z,33.40
2019-06-07T07:43:01.796Z,33.60
2019-06-07T07:45:32.566Z,32.80
2019-06-07T07:48:15.731Z,32.20
2019-06-07T07:50:35.346Z,32.30
2019-06-07T07:53:06.679Z,31.90
2019-06-07T07:55:37.765Z,31.80
2019-06-07T07:58:08.506Z,32.20
2019-06-07T08:01:07.714Z,32.20
2019-06-07T08:03:12.303Z,31.90
2019-06-07T08:05:45.089Z,31.50
2019-06-07T08:08:15.275Z,31.70
2019-06-07T08:10:50.410Z,32.00
2019-06-07T08:13:25.571Z,31.90
2019-06-07T08:15:55.805Z,31.80
2019-06-07T08:18:23.125Z,31.50
2019-06-07T08:21:15.007Z,31.00
2019-06-07T08:23:25.996Z,30.60
2019-06-07T08:26:00.896Z,30.30
2019-06-07T08:28:29.037Z,30.00
2019-06-07T08:31:06.540Z,29.60
2019-06-07T08:33:32.268Z,29.40
2019-06-07T08:36:16.965Z,29.20
2019-06-07T08:38:47.463Z,29.00
2019-06-07T08:41:12.280Z,28.90
2019-06-07T08:43:42.088Z,28.80
2019-06-07T08:46:12.599Z,28.90
2019-06-07T08:48:43.492Z,29.00
2019-06-07T08:51:14.097Z,29.20
2019-06-07T08:54:02.359Z,29.10
2019-06-07T08:56:17.429Z,28.90
2019-06-07T08:58:48.173Z,28.70
2019-06-07T09:01:20.420Z,28.60
2019-06-07T09:03:52.072Z,28.60
2019-06-07T09:09:00.348Z,28.70
2019-06-07T09:11:29.120Z,28.60
2019-06-07T09:14:02.918Z,28.70
2019-06-07T09:16:32.168Z,29.00
2019-06-07T09:19:10.106Z,29.30
2019-06-07T09:21:35.236Z,29.30
2019-06-07T09:24:11.315Z,29.30
2019-06-07T09:26:38.469Z,29.40
2019-06-07T09:29:12.013Z,29.60
2019-06-07T09:31:52.680Z,29.90
2019-06-07T09:34:15.539Z,29.90
2019-06-07T09:36:46.679Z,29.90
2019-06-07T09:39:17.502Z,29.80
2019-06-07T09:41:50.322Z,29.80
2019-06-07T09:44:25.824Z,29.60
2019-06-07T09:47:12.770Z,29.60
2019-06-07T09:49:32.282Z,29.50
2019-06-07T09:51:59.752Z,29.30
2019-06-07T09:55:03.755Z,29.10
2019-06-07T09:57:07.049Z,28.80
2019-06-07T09:59:34.611Z,28.60
2019-06-07T10:02:08.631Z,28.60
2019-06-07T10:04:37.938Z,28.50
2019-06-07T10:07:28.117Z,28.40
2019-06-07T10:10:11.682Z,28.40
2019-06-07T10:12:15.057Z,28.40
2019-06-07T10:14:46.089Z,28.40
2019-06-07T10:17:16.783Z,28.60
2019-06-07T10:19:47.631Z,28.50
2019-06-07T10:22:18.297Z,28.50
2019-06-07T10:24:48.778Z,28.40
2019-06-07T10:27:19.428Z,28.40
2019-06-07T10:29:50.181Z,28.40
2019-06-07T10:32:20.998Z,28.40
2019-06-07T10:34:51.671Z,28.40
2019-06-07T10:37:22.378Z,28.40
2019-06-07T10:39:53.189Z,28.30
2019-06-07T10:42:24.425Z,28.30
2019-06-07T10:44:55.145Z,28.30
2019-06-07T10:47:25.891Z,28.40
2019-06-07T10:49:58.343Z,28.40
2019-06-07T10:52:29.257Z,28.40
2019-06-07T10:55:00.586Z,28.30
2019-06-07T10:57:31.613Z,28.20
2019-06-07T11:00:13.676Z,28.10
2019-06-07T11:02:44.529Z,28.30
2019-06-07T11:05:15.055Z,28.30
2019-06-07T11:07:45.565Z,28.30
2019-06-07T11:10:19.587Z,28.30
2019-06-07T11:12:48.866Z,28.30
2019-06-07T11:15:19.651Z,28.30
2019-06-07T11:17:50.542Z,28.40
2019-06-07T11:20:21.306Z,28.30
2019-06-07T11:22:51.805Z,28.30
2019-06-07T11:25:22.406Z,28.30
2019-06-07T11:27:52.974Z,28.20
2019-06-07T11:30:23.745Z,28.30
2019-06-07T11:32:54.611Z,28.30
2019-06-07T11:35:26.518Z,28.30
2019-06-07T11:37:57.407Z,28.30
2019-06-07T11:40:35.539Z,28.20
2019-06-07T11:43:01.658Z,28.30
2019-06-07T11:45:32.243Z,28.20
2019-06-07T11:48:02.844Z,28.20
2019-06-07T11:50:34.460Z,28.20
2019-06-07T11:53:06.343Z,28.20
2019-06-07T11:55:37.270Z,28.20
2019-06-07T11:58:12.698Z,28.10
2019-06-07T12:00:40.363Z,28.10
2019-06-07T12:03:11.645Z,28.00
2019-06-07T12:05:42.288Z,27.90
2019-06-07T12:08:14.037Z,27.90
2019-06-07T12:10:44.806Z,27.90
2019-06-07T12:13:17.316Z,27.80
2019-06-07T12:15:49.227Z,27.80
2019-06-07T12:18:20.181Z,27.70
2019-06-07T12:20:50.979Z,27.70
2019-06-07T12:23:21.693Z,27.70
2019-06-07T12:25:53.799Z,27.60
2019-06-07T12:28:24.635Z,27.60
2019-06-07T12:30:55.515Z,27.60
2019-06-07T12:33:26.273Z,27.60
2019-06-07T12:35:57.212Z,27.60
2019-06-07T12:38:28.031Z,27.50
2019-06-07T12:40:58.608Z,27.40
2019-06-07T12:43:29.439Z,27.40
2019-06-07T12:46:00.250Z,27.30
2019-06-07T12:48:31.256Z,27.30
2019-06-07T12:51:01.888Z,27.30
2019-06-07T12:53:32.435Z,27.30
2019-06-07T12:56:03.149Z,27.30
2019-06-07T12:58:36.242Z,27.30
2019-06-07T13:01:06.124Z,27.40
2019-06-07T13:03:36.983Z,27.40
2019-06-07T13:06:08.024Z,27.40
2019-06-07T13:08:38.552Z,27.40
2019-06-07T13:11:15.993Z,27.40
2019-06-07T13:13:42.830Z,27.40
2019-06-07T13:16:13.707Z,27.60
2019-06-07T13:18:44.402Z,27.50
2019-06-07T13:21:16.362Z,27.60
2019-06-07T13:23:48.169Z,27.60
2019-06-07T13:26:22.996Z,27.50
2019-06-07T13:28:55.180Z,27.60
2019-06-07T13:31:27.247Z,27.60
2019-06-07T13:33:58.011Z,27.60
2019-06-07T13:36:28.753Z,27.60
2019-06-07T13:38:59.687Z,27.60
2019-06-07T13:41:41.860Z,27.60
2019-06-07T13:44:03.691Z,27.60
2019-06-07T13:46:34.262Z,27.60
2019-06-07T13:49:06.185Z,27.60
2019-06-07T13:51:37.254Z,27.60
2019-06-07T13:54:07.749Z,27.60
2019-06-07T13:57:00.301Z,27.60
2019-06-07T13:59:10.994Z,27.50
2019-06-07T14:01:41.632Z,27.50
2019-06-07T14:04:12.595Z,27.50
2019-06-07T14:06:43.225Z,27.40
2019-06-07T14:09:13.849Z,27.50
2019-06-07T14:11:50.408Z,27.40
2019-06-07T14:14:17.097Z,27.40
2019-06-07T14:16:47.781Z,27.40
2019-06-07T14:19:20.308Z,27.30
2019-06-07T14:21:51.615Z,27.30
2019-06-07T14:24:22.920Z,27.40
2019-06-07T14:27:08.763Z,27.40
2019-06-07T14:29:39.456Z,27.40
2019-06-07T14:32:13.050Z,27.40
2019-06-07T14:34:43.648Z,27.40
2019-06-07T14:37:14.879Z,27.40
2019-06-07T14:39:45.811Z,27.40
2019-06-07T14:42:16.785Z,27.40
2019-06-07T14:44:47.530Z,27.50
2019-06-07T14:47:18.281Z,27.50
2019-06-07T14:49:50.141Z,27.60
2019-06-07T14:52:26.335Z,27.60
2019-06-07T14:55:00.773Z,27.50
2019-06-07T14:57:33.657Z,27.60
2019-06-07T15:00:10.773Z,27.60
2019-06-07T15:02:39.749Z,27.60
2019-06-07T15:05:10.634Z,27.60
2019-06-07T15:07:41.161Z,27.70
2019-06-07T15:10:13.482Z,27.70
2019-06-07T15:12:44.177Z,27.70
2019-06-07T15:15:15.022Z,27.80
2019-06-07T15:17:45.462Z,27.80
2019-06-07T15:20:16.540Z,27.80
2019-06-07T15:22:47.073Z,27.80
2019-06-07T15:25:17.985Z,27.80
2019-06-07T15:27:48.684Z,27.70
2019-06-07T15:30:20.297Z,27.70
2019-06-07T15:32:51.229Z,27.70
2019-06-07T15:35:22.113Z,27.60
2019-06-07T15:37:52.845Z,27.60
2019-06-07T15:40:24.068Z,27.60
2019-06-07T15:42:58.070Z,27.50
2019-06-07T15:45:33.535Z,27.50
2019-06-07T15:48:06.977Z,27.50
2019-06-07T15:50:43.276Z,27.50
2019-06-07T15:53:18.303Z,27.50
2019-06-07T15:55:52.664Z,27.50
2019-06-07T15:58:27.046Z,27.50
2019-06-07T16:01:01.611Z,27.50
2019-06-07T16:03:38.098Z,27.50
2019-06-07T16:06:09.466Z,27.50
2019-06-07T16:08:40.479Z,27.50
2019-06-07T16:11:11.342Z,27.60
2019-06-07T16:13:42.875Z,27.60
2019-06-07T16:16:13.867Z,27.60
2019-06-07T16:18:44.793Z,27.60
2019-06-07T16:21:15.357Z,27.60
2019-06-07T16:23:46.387Z,27.70
2019-06-07T16:26:17.342Z,27.70
2019-06-07T16:28:48.341Z,27.70
2019-06-07T16:31:19.196Z,27.70
2019-06-07T16:33:49.771Z,27.80
2019-06-07T16:36:20.338Z,27.80
2019-06-07T16:38:51.285Z,27.80
2019-06-07T16:41:22.046Z,27.80
2019-06-07T16:43:52.859Z,27.80
2019-06-07T16:46:24.176Z,27.80
2019-06-07T16:48:55.003Z,27.80
2019-06-07T16:51:25.996Z,27.80
2019-06-07T16:53:57.289Z,27.80
2019-06-07T16:56:28.769Z,27.80
2019-06-07T16:58:59.463Z,27.80
2019-06-07T17:01:30.216Z,27.70
2019-06-07T17:04:01.112Z,27.70
2019-06-07T17:06:32.000Z,27.70
2019-06-07T17:09:02.828Z,27.70
2019-06-07T17:11:34.824Z,27.60
2019-06-07T17:14:05.665Z,27.50
2019-06-07T17:16:36.316Z,27.40
2019-06-07T17:19:07.154Z,27.30
2019-06-07T17:21:39.164Z,27.20
2019-06-07T17:24:12.327Z,27.00
2019-06-07T17:26:44.076Z,27.00
2019-06-07T17:29:14.886Z,26.90
2019-06-07T17:31:46.409Z,26.80
2019-06-07T17:34:18.487Z,26.80
2019-06-07T17:36:50.580Z,26.70
2019-06-07T17:39:21.439Z,26.50
2019-06-07T17:42:01.752Z,26.50
2019-06-07T17:44:24.507Z,26.40
2019-06-07T17:46:55.253Z,26.40
2019-06-07T17:49:26.405Z,26.30
2019-06-07T17:51:58.605Z,26.20
2019-06-07T17:54:29.507Z,26.20
2019-06-07T17:57:00.569Z,26.20
2019-06-07T17:59:31.303Z,26.10
2019-06-07T18:02:13.940Z,26.10
2019-06-07T18:04:35.063Z,26.00
2019-06-07T18:07:05.674Z,25.90
2019-06-07T18:09:38.039Z,25.90
2019-06-07T18:12:08.564Z,25.80
2019-06-07T18:14:39.311Z,25.80
2019-06-07T18:17:10.163Z,25.70
2019-06-07T18:19:42.520Z,25.70
2019-06-07T18:22:13.790Z,25.60
2019-06-07T18:24:44.726Z,25.60
2019-06-07T18:27:15.449Z,25.50
2019-06-07T18:29:46.481Z,25.50
2019-06-07T18:32:17.540Z,25.40
2019-06-07T18:34:48.733Z,25.30
2019-06-07T18:37:19.768Z,25.30
2019-06-07T18:39:51.106Z,25.20
2019-06-07T18:42:22.207Z,25.20
2019-06-07T18:44:53.175Z,25.20
2019-06-07T18:47:23.892Z,25.10
2019-06-07T18:49:55.574Z,25.10
2019-06-07T18:52:34.628Z,25.00
2019-06-07T18:55:05.735Z,25.00
2019-06-07T18:57:36.586Z,24.90
2019-06-07T19:00:09.340Z,24.80
2019-06-07T19:02:40.061Z,24.80
2019-06-07T19:05:12.228Z,24.80
2019-06-07T19:07:42.891Z,24.80
2019-06-07T19:10:14.171Z,24.80
2019-06-07T19:12:44.699Z,24.70
2019-06-07T19:15:16.299Z,24.70
2019-06-07T19:17:46.859Z,24.70
2019-06-07T19:20:19.266Z,24.60
2019-06-07T19:22:50.177Z,24.60
2019-06-07T19:25:21.106Z,24.50
2019-06-07T19:27:52.777Z,24.40
2019-06-07T19:30:23.768Z,24.50
2019-06-07T19:32:55.059Z,24.40
2019-06-07T19:35:26.016Z,24.40
2019-06-07T19:37:57.933Z,24.40
2019-06-07T19:40:28.597Z,24.30
2019-06-07T19:43:00.467Z,24.20
2019-06-07T19:45:31.850Z,24.20
2019-06-07T19:48:02.823Z,24.20
2019-06-07T19:50:34.076Z,24.10
2019-06-07T19:53:04.842Z,24.10
2019-06-07T19:55:35.762Z,24.10
2019-06-07T19:58:06.386Z,24.10
2019-06-07T20:00:37.264Z,24.10
2019-06-07T20:03:07.753Z,24.10
2019-06-07T20:05:38.519Z,24.00
2019-06-07T20:08:09.204Z,24.00
2019-06-07T20:10:40.118Z,23.90
2019-06-07T20:13:11.138Z,23.90
2019-06-07T20:15:41.656Z,23.80
2019-06-07T20:18:12.230Z,23.80
2019-06-07T20:20:43.020Z,23.70
2019-06-07T20:23:13.589Z,23.70
2019-06-07T20:25:44.275Z,23.70
2019-06-07T20:28:14.913Z,23.60
2019-06-07T20:30:45.619Z,23.60
2019-06-07T20:33:16.289Z,23.60
2019-06-07T20:35:47.067Z,23.50
2019-06-07T20:38:17.661Z,23.50
2019-06-07T20:40:48.518Z,23.50
2019-06-07T20:43:19.150Z,23.40
2019-06-07T20:45:49.871Z,23.40
2019-06-07T20:48:20.722Z,23.30
2019-06-07T20:50:51.714Z,23.30
2019-06-07T20:53:22.529Z,23.30
2019-06-07T20:55:53.179Z,23.20
2019-06-07T20:58:24.363Z,23.20
2019-06-07T21:00:55.045Z,23.20
2019-06-07T21:03:25.745Z,23.10
2019-06-07T21:05:56.485Z,23.10
2019-06-07T21:08:27.383Z,23.00
2019-06-07T21:10:58.021Z,22.90
2019-06-07T21:13:28.696Z,23.00
2019-06-07T21:15:59.970Z,22.90
2019-06-07T21:18:30.817Z,22.90
2019-06-07T21:21:02.347Z,22.90
2019-06-07T21:23:33.178Z,22.90
2019-06-07T21:26:04.772Z,22.80
2019-06-07T21:28:35.476Z,22.80
2019-06-07T21:31:06.586Z,22.80
2019-06-07T21:33:37.288Z,22.60
2019-06-07T21:36:08.031Z,22.50
2019-06-07T21:38:38.786Z,22.50
2019-06-07T21:41:10.600Z,22.50
2019-06-07T21:43:41.902Z,22.40
2019-06-07T21:46:19.962Z,22.30
2019-06-07T21:48:44.600Z,22.30
2019-06-07T21:51:15.232Z,22.20
2019-06-07T21:53:46.045Z,22.20
2019-06-07T21:56:16.942Z,22.20
2019-06-07T21:58:47.703Z,22.20
2019-06-07T22:01:28.301Z,22.20
2019-06-07T22:03:59.169Z,22.20
2019-06-07T22:06:30.274Z,22.30
2019-06-07T22:09:01.054Z,22.20
2019-06-07T22:11:33.694Z,22.20
2019-06-07T22:14:06.251Z,22.10
2019-06-07T22:16:37.095Z,22.10
2019-06-07T22:19:08.685Z,22.00
2019-06-07T22:21:39.545Z,22.00
2019-06-07T22:24:10.995Z,22.00
2019-06-07T22:26:41.842Z,22.00
2019-06-07T22:29:12.706Z,22.00
2019-06-07T22:31:43.299Z,21.90
2019-06-07T22:34:15.076Z,21.90
2019-06-07T22:36:45.778Z,21.80
2019-06-07T22:39:16.332Z,21.70
2019-06-07T22:41:47.002Z,21.60
2019-06-07T22:44:19.332Z,21.50
2019-06-07T22:46:50.201Z,21.40
2019-06-07T22:49:20.908Z,21.40
2019-06-07T22:51:51.544Z,21.40
2019-06-07T22:54:22.437Z,21.30
2019-06-07T22:57:04.460Z,21.30
2019-06-07T22:59:35.234Z,21.30
2019-06-07T23:02:05.824Z,21.20
2019-06-07T23:04:36.718Z,21.10
2019-06-07T23:07:08.878Z,21.10
2019-06-07T23:09:39.612Z,21.10
2019-06-07T23:12:11.182Z,21.10
2019-06-07T23:14:41.914Z,21.00
2019-06-07T23:17:13.880Z,21.00
2019-06-07T23:19:46.314Z,21.00
2019-06-07T23:22:17.912Z,20.90
2019-06-07T23:24:48.902Z,21.00
2019-06-07T23:27:20.792Z,20.90
2019-06-07T23:29:52.471Z,20.90
2019-06-07T23:32:23.287Z,20.80
2019-06-07T23:34:54.034Z,20.80
2019-06-07T23:37:24.918Z,20.80
2019-06-07T23:39:55.537Z,20.80
2019-06-07T23:42:26.440Z,20.80
2019-06-07T23:44:57.057Z,20.70
2019-06-07T23:47:27.826Z,20.70
2019-06-07T23:49:58.533Z,20.70
2019-06-07T23:52:29.205Z,20.60
2019-06-07T23:54:59.908Z,20.50
2019-06-07T23:57:30.877Z,20.60
